Date,TemperatureHighF,TemperatureAvgF,TemperatureLowF,DewpointHighF,DewpointAvgF,DewpointLowF,HumidityHigh,HumidityAvg,HumidityLow,PressureMaxIn,PressureMinIn,WindSpeedMaxMPH,WindSpeedAvgMPH,GustSpeedMaxMPH,PrecipitationSumIn
2013-7-1,85,73,67,82,72,67,99,98,88,30.05,29.96,6,2,8,1.03
2013-7-2,73,71,70,72,70,69,99,99,99,30.30,30.25,4,1,4,0.79
2013-7-3,87,76,69,85,75,69,99,98,85,30.37,30.27,9,2,11,0.09
2013-7-4,91,79,69,84,76,69,99,91,66,30.40,30.31,6,2,8,0.18
2013-7-5,93,79,68,83,75,68,99,89,67,30.41,30.28,5,2,11,0.13
2013-7-6,91,77,69,82,73,68,94,89,71,30.38,30.25,5,2,9,0.10
2013-7-7,91,76,66,82,73,64,94,89,69,30.32,30.20,6,2,10,0.04
2013-7-8,89,76,68,83,73,67,94,92,77,30.29,30.22,5,2,10,0.05
2013-7-9,89,75,68,84,73,67,94,93,81,30.29,30.23,7,2,15,0.04
2013-7-11,69,69,68,69,68,68,99,99,99,30.06,30.01,4,1,4,0.09
2013-7-12,76,70,67,76,70,67,99,99,99,30.16,30.00,7,1,7,0.15
2013-7-13,81,71,67,80,70,67,99,99,99,30.31,30.14,8,2,8,0.64
2013-7-14,91,75,66,86,74,66,100,96,72,30.43,30.31,11,2,11,0.41
2013-7-15,93,78,66,85,75,66,100,91,67,30.45,30.37,8,1,8,0.19
2013-7-16,94,79,66,84,75,66,100,89,66,30.42,30.30,14,2,14,0.06
2013-7-17,95,81,70,87,77,70,100,88,64,30.36,30.23,8,1,8,0.00
2013-7-18,95,81,72,87,78,71,100,91,69,30.28,30.17,9,1,9,0.09
2013-7-19,91,80,71,86,77,70,100,92,75,30.25,30.12,12,3,12,0.01
2013-7-20,90,78,71,83,76,71,100,95,77,30.18,30.05,13,4,13,0.09
2013-7-21,88,76,68,84,75,68,100,97,84,30.14,30.04,15,2,15,0.35
2013-7-22,90,76,68,85,75,67,100,97,84,30.09,29.96,8,2,8,0.00
2013-7-23,90,78,70,84,76,70,100,94,75,30.00,29.86,14,4,14,0.01
2013-7-24,96,79,68,83,75,67,100,88,61,29.98,29.86,12,2,12,0.38
2013-7-25,82,71,64,78,70,64,100,98,85,30.17,29.94,9,2,9,0.05
2013-7-26,89,73,59,76,68,59,100,85,61,30.24,30.15,7,1,7,0.00
2013-7-27,89,72,-6,82,70,-7,100,92,69,30.19,30.07,49,2,49,0.35
2013-7-28,88,75,66,82,72,36,100,92,33,30.14,30.05,103,2,103,0.15
2013-7-29,89,75,59,79,68,2,100,79,10,30.29,30.12,9,2,9,0.18
2013-7-30,91,75,0,69,62,54,76,66,46,30.35,30.26,8,1,8,0.05
2013-7-31,86,72,57,75,60,-7,76,71,7,30.28,30.24,4,1,4,1.51